createdAt,value
2022-08-28T00:02:50.065Z,44.35
2022-08-28T00:05:53.851Z,44.33
2022-08-28T00:08:57.777Z,44.69
2022-08-28T00:12:02.502Z,44.68
2022-08-28T00:15:08.267Z,45.22
2022-08-28T00:18:15.103Z,45.05
2022-08-28T00:21:18.366Z,45.51
2022-08-28T00:24:21.934Z,45.36
2022-08-28T00:27:43.809Z,44.88
2022-08-28T00:30:49.785Z,45.15
2022-08-28T00:33:53.653Z,45.54
2022-08-28T00:36:56.827Z,45.87
2022-08-28T00:39:59.955Z,45.70
2022-08-28T00:43:07.446Z,45.54
2022-08-28T00:46:13.087Z,45.45
2022-08-28T00:49:18.935Z,45.07
2022-08-28T00:52:24.310Z,44.93
2022-08-28T00:55:29.694Z,45.19
2022-08-28T00:58:35.046Z,45.17
2022-08-28T01:01:39.330Z,44.54
2022-08-28T01:04:43.109Z,44.98
2022-08-28T01:07:47.198Z,44.58
2022-08-28T01:10:55.467Z,44.24
2022-08-28T01:14:02.381Z,44.44
2022-08-28T01:17:08.411Z,44.96
2022-08-28T01:20:15.422Z,44.89
2022-08-28T01:23:27.970Z,44.65
2022-08-28T01:26:33.286Z,44.85
2022-08-28T01:29:36.634Z,44.35
2022-08-28T01:32:42.072Z,45.20
2022-08-28T01:35:48.349Z,45.46
2022-08-28T01:38:57.296Z,45.39
2022-08-28T01:42:03.878Z,45.50
2022-08-28T01:45:11.330Z,45.46
2022-08-28T01:48:15.473Z,45.40
2022-08-28T01:51:24.389Z,45.06
2022-08-28T01:54:28.879Z,45.03
2022-08-28T01:57:33.666Z,45.18
2022-08-28T02:00:37.114Z,45.49
2022-08-28T02:03:43.306Z,45.55
2022-08-28T02:06:49.087Z,45.68
2022-08-28T02:09:52.791Z,45.61
2022-08-28T02:12:59.256Z,45.61
2022-08-28T02:16:02.759Z,45.19
2022-08-28T02:19:06.241Z,45.41
2022-08-28T02:22:10.470Z,45.54
2022-08-28T02:25:14.138Z,46.27
2022-08-28T02:28:20.108Z,46.40
2022-08-28T02:31:23.277Z,45.95
2022-08-28T02:34:26.546Z,46.27
2022-08-28T02:37:29.998Z,46.08
2022-08-28T02:40:33.499Z,46.64
2022-08-28T02:43:38.358Z,46.37
2022-08-28T02:46:41.536Z,46.25
2022-08-28T02:49:44.715Z,46.30
2022-08-28T02:52:49.320Z,46.33
2022-08-28T02:55:52.607Z,46.15
2022-08-28T02:58:58.467Z,46.13
2022-08-28T03:02:04.082Z,45.72
2022-08-28T03:05:07.626Z,45.83
2022-08-28T03:08:10.810Z,45.86
2022-08-28T03:11:14.038Z,45.93
2022-08-28T03:14:20.750Z,45.90
2022-08-28T03:17:24.422Z,45.61
2022-08-28T03:20:27.999Z,45.37
2022-08-28T03:23:31.923Z,45.05
2022-08-28T03:26:35.329Z,45.23
2022-08-28T03:29:40.238Z,45.12
2022-08-28T03:32:43.619Z,45.55
2022-08-28T03:35:46.792Z,45.86
2022-08-28T03:38:50.742Z,45.25
2022-08-28T03:41:53.866Z,45.03
2022-08-28T03:44:59.638Z,45.10
2022-08-28T03:48:03.912Z,44.88
2022-08-28T03:51:09.069Z,45.13
2022-08-28T03:54:12.172Z,44.92
2022-08-28T03:57:18.927Z,45.72
2022-08-28T04:00:26.164Z,45.50
2022-08-28T04:03:30.493Z,45.35
2022-08-28T04:06:34.223Z,45.66
2022-08-28T04:09:39.461Z,45.86
2022-08-28T04:12:44.529Z,45.83
2022-08-28T04:15:57.434Z,45.55
2022-08-28T04:19:01.812Z,45.40
2022-08-28T04:22:05.115Z,45.69
2022-08-28T04:25:09.292Z,45.50
2022-08-28T04:28:12.580Z,45.43
2022-08-28T04:31:17.966Z,45.22
2022-08-28T04:34:34.131Z,45.90
2022-08-28T04:37:37.714Z,45.64
2022-08-28T04:40:41.541Z,46.06
2022-08-28T04:43:45.710Z,45.47
2022-08-28T04:46:50.208Z,45.65
2022-08-28T04:49:53.489Z,46.12
2022-08-28T04:52:56.681Z,46.48
2022-08-28T04:56:00.779Z,46.98
2022-08-28T04:59:04.267Z,46.28
2022-08-28T05:02:09.459Z,45.81
2022-08-28T05:05:13.000Z,45.91
2022-08-28T05:08:17.891Z,46.46
2022-08-28T05:11:33.179Z,45.69
2022-08-28T05:14:37.834Z,45.71
2022-08-28T05:17:42.845Z,45.93
2022-08-28T05:20:48.675Z,46.00
2022-08-28T05:23:56.563Z,46.61
2022-08-28T05:27:02.231Z,47.13
2022-08-28T05:30:06.297Z,46.83
2022-08-28T05:33:13.388Z,46.80
2022-08-28T05:36:17.913Z,46.57
2022-08-28T05:39:21.179Z,47.27
2022-08-28T05:42:26.860Z,47.35
2022-08-28T05:45:34.618Z,48.14
2022-08-28T05:48:40.976Z,47.87
2022-08-28T05:51:44.573Z,47.42
2022-08-28T05:54:48.870Z,47.80
2022-08-28T05:57:52.235Z,46.99
2022-08-28T06:00:55.415Z,47.23
2022-08-28T06:04:03.248Z,47.50
2022-08-28T06:07:06.891Z,47.19
2022-08-28T06:10:10.948Z,46.46
2022-08-28T06:13:14.092Z,47.02
2022-08-28T06:16:17.433Z,47.84
2022-08-28T06:19:23.682Z,46.88
2022-08-28T06:22:26.835Z,46.82
2022-08-28T06:25:30.095Z,46.41
2022-08-28T06:28:33.483Z,47.07
2022-08-28T06:31:37.311Z,48.64
2022-08-28T06:34:41.997Z,47.69
2022-08-28T06:37:46.091Z,48.00
2022-08-28T06:40:52.937Z,47.97
2022-08-28T06:43:57.768Z,47.54
2022-08-28T06:47:00.889Z,47.54
2022-08-28T06:50:06.127Z,47.28
2022-08-28T06:53:10.208Z,47.39
2022-08-28T06:56:25.709Z,47.67
2022-08-28T06:59:30.349Z,48.15
2022-08-28T07:02:33.474Z,47.96
2022-08-28T07:05:38.288Z,46.42
2022-08-28T07:08:42.159Z,46.13
2022-08-28T07:11:46.649Z,47.66
2022-08-28T07:14:49.916Z,47.79
2022-08-28T07:17:53.059Z,46.41
2022-08-28T07:21:00.578Z,47.73
2022-08-28T07:24:05.471Z,45.93
2022-08-28T07:27:09.125Z,45.98
2022-08-28T07:30:13.373Z,45.97
2022-08-28T07:33:16.736Z,46.11
2022-08-28T07:36:29.769Z,45.48
2022-08-28T07:39:33.251Z,44.88
2022-08-28T07:42:52.779Z,45.76
2022-08-28T07:45:59.759Z,45.38
2022-08-28T07:49:03.819Z,44.97
2022-08-28T07:52:12.373Z,45.21
2022-08-28T07:55:16.332Z,45.28
2022-08-28T07:58:19.613Z,45.16
2022-08-28T08:01:23.245Z,46.32
2022-08-28T08:04:26.887Z,45.36
2022-08-28T08:07:33.032Z,43.98
2022-08-28T08:10:36.733Z,43.77
2022-08-28T08:13:42.005Z,44.17
2022-08-28T08:16:47.595Z,42.97
2022-08-28T08:19:51.426Z,43.69
2022-08-28T08:22:56.638Z,43.05
2022-08-28T08:26:04.140Z,43.10
2022-08-28T08:29:07.928Z,43.70
2022-08-28T08:32:13.840Z,43.42
2022-08-28T08:35:18.281Z,43.44
2022-08-28T08:38:23.793Z,43.04
2022-08-28T08:41:31.027Z,43.00
2022-08-28T08:44:37.414Z,41.93
2022-08-28T08:47:51.665Z,43.13
2022-08-28T08:50:57.494Z,42.97
2022-08-28T08:54:07.825Z,43.37
2022-08-28T08:57:12.826Z,43.04
2022-08-28T09:22:55.504Z,42.19
2022-08-28T09:26:01.806Z,42.75
2022-08-28T09:29:09.111Z,42.23
2022-08-28T09:32:23.661Z,43.01
2022-08-28T09:35:29.200Z,43.77
2022-08-28T09:38:33.693Z,43.88
2022-08-28T09:41:56.919Z,43.65
2022-08-28T09:45:09.499Z,42.78
2022-08-28T09:48:23.838Z,41.80
2022-08-28T09:51:31.478Z,40.74
2022-08-28T09:54:42.019Z,39.81
2022-08-28T09:57:47.651Z,39.94
2022-08-28T10:00:57.108Z,39.44
2022-08-28T10:04:15.524Z,39.05
2022-08-28T10:07:28.795Z,38.93
2022-08-28T10:10:39.921Z,39.46
2022-08-28T10:13:54.819Z,39.77
2022-08-28T10:17:07.488Z,39.76
2022-08-28T10:20:17.971Z,40.95
2022-08-28T10:23:32.809Z,40.33
2022-08-28T10:26:44.509Z,38.31
2022-08-28T10:29:55.012Z,38.98
2022-08-28T10:33:13.143Z,38.53
2022-08-28T10:36:33.520Z,39.18
2022-08-28T10:39:49.125Z,38.84
2022-08-28T10:43:02.131Z,39.12
2022-08-28T10:46:07.176Z,39.30
2022-08-28T10:49:17.603Z,38.16
2022-08-28T10:52:25.850Z,37.04
2022-08-28T10:55:36.658Z,36.36
2022-08-28T10:58:42.015Z,36.38
2022-08-28T11:01:47.401Z,35.57
2022-08-28T11:04:53.277Z,36.00
2022-08-28T11:08:02.100Z,36.17
2022-08-28T11:11:08.503Z,36.64
2022-08-28T11:14:25.178Z,36.68
2022-08-28T11:17:42.586Z,37.35
2022-08-28T11:20:58.100Z,36.99
2022-08-28T11:24:07.186Z,36.84
2022-08-28T11:27:22.041Z,36.42
2022-08-28T11:30:33.518Z,37.46
2022-08-28T11:33:42.025Z,36.96
2022-08-28T11:37:01.300Z,37.07
2022-08-28T11:40:18.407Z,36.80
2022-08-28T11:43:37.888Z,36.70
2022-08-28T11:46:44.827Z,36.89
2022-08-28T11:49:47.970Z,36.92
2022-08-28T11:53:45.485Z,38.12
2022-08-28T11:57:01.401Z,38.01
2022-08-28T12:00:11.560Z,37.63
2022-08-28T12:03:17.899Z,35.94
2022-08-28T12:07:01.975Z,36.21
2022-08-28T12:10:46.485Z,36.79
2022-08-28T12:13:53.007Z,35.72
2022-08-28T12:17:18.612Z,33.11
2022-08-28T12:20:29.536Z,31.72
2022-08-28T12:23:45.677Z,31.94
2022-08-28T12:26:54.257Z,31.35
2022-08-28T12:30:03.347Z,32.90
2022-08-28T12:33:15.878Z,33.21
2022-08-28T12:36:26.610Z,33.97
2022-08-28T12:39:31.748Z,34.51
2022-08-28T12:42:39.348Z,34.88
2022-08-28T12:45:50.797Z,34.46
2022-08-28T12:48:56.237Z,34.87
2022-08-28T12:52:11.573Z,35.70
2022-08-28T12:55:24.367Z,36.05
2022-08-28T12:58:33.012Z,36.39
2022-08-28T13:01:39.056Z,35.91
2022-08-28T13:04:46.833Z,36.58
2022-08-28T13:07:52.614Z,36.18
2022-08-28T13:10:56.233Z,36.60
2022-08-28T13:13:59.462Z,36.83
2022-08-28T13:17:04.600Z,34.90
2022-08-28T13:20:08.962Z,30.07
2022-08-28T13:23:29.863Z,29.79
2022-08-28T13:26:36.470Z,31.05
2022-08-28T13:29:51.647Z,31.82
2022-08-28T13:33:04.676Z,31.64
2022-08-28T13:36:22.117Z,33.08
2022-08-28T13:39:25.570Z,33.09
2022-08-28T13:42:29.136Z,35.58
2022-08-28T13:45:35.643Z,33.08
2022-08-28T13:48:47.216Z,33.24
2022-08-28T13:51:50.864Z,33.05
2022-08-28T13:54:54.493Z,33.76
2022-08-28T13:57:58.513Z,33.40
2022-08-28T14:01:02.372Z,33.22
2022-08-28T14:04:05.988Z,34.03
2022-08-28T14:07:09.823Z,32.06
2022-08-28T14:10:13.183Z,31.73
2022-08-28T14:13:16.392Z,32.47
2022-08-28T14:16:19.660Z,32.14
2022-08-28T14:19:24.289Z,32.10
2022-08-28T14:22:27.886Z,30.45
2022-08-28T14:25:31.732Z,31.50
2022-08-28T14:28:36.881Z,33.74
2022-08-28T14:31:41.199Z,33.75
2022-08-28T14:34:47.699Z,32.53
2022-08-28T14:37:50.840Z,32.00
2022-08-28T14:40:54.819Z,32.06
2022-08-28T14:43:59.384Z,31.10
2022-08-28T14:47:02.514Z,29.52
2022-08-28T14:50:08.044Z,29.82
2022-08-28T14:53:11.907Z,29.13
2022-08-28T14:56:15.532Z,28.41
2022-08-28T14:59:24.225Z,27.82
2022-08-28T15:02:27.682Z,28.34
2022-08-28T15:05:32.174Z,30.20
2022-08-28T15:08:36.848Z,32.02
2022-08-28T15:11:40.464Z,33.47
2022-08-28T15:14:51.392Z,34.60
2022-08-28T15:17:58.704Z,35.45
2022-08-28T15:21:03.747Z,36.07
2022-08-28T15:24:09.746Z,36.22
2022-08-28T15:27:12.854Z,36.69
2022-08-28T15:30:16.964Z,36.90
2022-08-28T15:33:20.080Z,37.04
2022-08-28T15:36:24.646Z,36.88
2022-08-28T15:39:47.118Z,36.76
2022-08-28T15:42:50.267Z,36.60
2022-08-28T15:45:53.409Z,36.77
2022-08-28T15:48:57.122Z,36.11
2022-08-28T15:52:01.982Z,36.01
2022-08-28T15:55:07.534Z,36.39
2022-08-28T15:58:13.842Z,36.32
2022-08-28T16:01:17.706Z,36.27
2022-08-28T16:04:20.952Z,35.76
2022-08-28T16:07:26.114Z,36.36
2022-08-28T16:10:29.642Z,36.31
2022-08-28T16:13:32.854Z,36.31
2022-08-28T16:16:36.195Z,36.46
2022-08-28T16:19:40.238Z,36.34
2022-08-28T16:22:44.730Z,36.36
2022-08-28T16:25:47.895Z,36.59
2022-08-28T16:28:51.232Z,36.65
2022-08-28T16:31:54.367Z,36.65
2022-08-28T16:34:57.602Z,37.10
2022-08-28T16:38:02.681Z,37.24
2022-08-28T16:41:06.433Z,37.26
2022-08-28T16:44:09.487Z,37.50
2022-08-28T16:47:12.670Z,37.16
2022-08-28T16:50:15.918Z,37.35
2022-08-28T16:53:24.346Z,37.56
2022-08-28T16:56:30.271Z,37.57
2022-08-28T16:59:33.862Z,38.79
2022-08-28T17:02:40.614Z,38.10
2022-08-28T17:05:43.914Z,38.26
2022-08-28T17:08:49.915Z,37.98
2022-08-28T17:11:55.714Z,37.41
2022-08-28T17:14:58.883Z,37.21
2022-08-28T17:18:02.014Z,37.86
2022-08-28T17:21:23.507Z,37.63
2022-08-28T17:24:28.205Z,36.66
2022-08-28T17:27:32.178Z,37.18
2022-08-28T17:30:35.346Z,37.95
2022-08-28T17:33:39.740Z,37.82
2022-08-28T17:36:43.421Z,37.34
2022-08-28T17:39:48.399Z,37.83
2022-08-28T17:42:53.721Z,38.08
2022-08-28T17:45:57.055Z,38.59
2022-08-28T17:49:00.623Z,38.78
2022-08-28T17:52:04.670Z,39.00
2022-08-28T17:55:10.379Z,39.13
2022-08-28T17:58:13.976Z,39.59
2022-08-28T18:01:20.255Z,39.30
2022-08-28T18:04:24.811Z,39.91
2022-08-28T18:07:28.211Z,39.82
2022-08-28T18:10:34.508Z,40.93
2022-08-28T18:13:37.970Z,40.68
2022-08-28T18:16:41.213Z,40.90
2022-08-28T18:19:44.820Z,41.13
2022-08-28T18:22:48.635Z,40.76
2022-08-28T18:25:53.114Z,40.54
2022-08-28T18:28:56.301Z,40.90
2022-08-28T18:32:01.831Z,41.38
2022-08-28T18:35:05.460Z,41.77
2022-08-28T18:38:09.302Z,41.56
2022-08-28T18:41:13.818Z,41.36
2022-08-28T18:44:21.176Z,41.47
2022-08-28T18:47:26.887Z,41.59
2022-08-28T18:50:31.889Z,42.31
2022-08-28T18:53:34.998Z,42.04
2022-08-28T18:56:39.960Z,42.21
2022-08-28T18:59:44.260Z,41.71
2022-08-28T19:02:47.811Z,42.16
2022-08-28T19:05:51.202Z,41.55
2022-08-28T19:08:54.336Z,42.23
2022-08-28T19:11:58.887Z,42.07
2022-08-28T19:15:02.100Z,41.97
2022-08-28T19:18:05.801Z,41.75
2022-08-28T19:21:16.147Z,41.64
2022-08-28T19:24:22.393Z,42.01
2022-08-28T19:27:26.922Z,41.92
2022-08-28T19:30:33.223Z,40.94
2022-08-28T19:33:36.526Z,41.79
2022-08-28T19:36:40.295Z,42.29
2022-08-28T19:39:47.839Z,41.22
2022-08-28T19:43:01.182Z,42.03
2022-08-28T19:46:09.805Z,42.02
2022-08-28T19:49:17.600Z,41.45
2022-08-28T19:52:20.803Z,41.73
2022-08-28T19:55:26.233Z,41.41
2022-08-28T19:58:30.703Z,41.52
2022-08-28T20:01:37.810Z,41.28
2022-08-28T20:04:40.978Z,41.40
2022-08-28T20:07:44.726Z,41.24
2022-08-28T20:10:48.044Z,41.80
2022-08-28T20:13:53.542Z,41.73
2022-08-28T20:16:56.687Z,41.71
2022-08-28T20:20:03.021Z,41.11
2022-08-28T20:23:07.525Z,41.31
2022-08-28T20:26:11.703Z,41.49
2022-08-28T20:29:17.242Z,41.84
2022-08-28T20:32:20.388Z,42.00
2022-08-28T20:35:24.608Z,41.71
2022-08-28T20:38:32.404Z,41.18
2022-08-28T20:41:36.892Z,41.63
2022-08-28T20:44:41.479Z,41.53
2022-08-28T20:47:44.920Z,41.33
2022-08-28T20:50:47.965Z,41.49
2022-08-28T20:53:53.970Z,42.11
2022-08-28T20:56:58.473Z,41.43
2022-08-28T21:00:05.758Z,41.98
2022-08-28T21:03:12.146Z,41.74
2022-08-28T21:06:15.223Z,41.60
2022-08-28T21:09:19.662Z,42.16
2022-08-28T21:12:24.802Z,41.94
2022-08-28T21:15:29.665Z,41.85
2022-08-28T21:18:32.754Z,41.45
2022-08-28T21:21:38.251Z,41.58
2022-08-28T21:24:41.625Z,41.94
2022-08-28T21:27:45.944Z,41.95
2022-08-28T21:30:50.461Z,41.89
2022-08-28T21:33:53.551Z,41.91
2022-08-28T21:36:56.640Z,41.86
2022-08-28T21:40:00.859Z,42.08
2022-08-28T21:43:04.527Z,41.90
2022-08-28T21:46:10.295Z,41.97
2022-08-28T21:49:13.587Z,42.34
2022-08-28T21:52:16.645Z,42.22
2022-08-28T21:55:19.742Z,42.42
2022-08-28T21:58:24.119Z,42.25
2022-08-28T22:01:28.729Z,42.23
2022-08-28T22:04:31.854Z,42.18
2022-08-28T22:07:34.915Z,42.39
2022-08-28T22:10:40.485Z,42.29
2022-08-28T22:13:43.846Z,42.63
2022-08-28T22:16:48.435Z,42.58
2022-08-28T22:19:51.555Z,42.61
2022-08-28T22:23:11.851Z,42.73
2022-08-28T22:26:17.445Z,42.69
2022-08-28T22:29:20.469Z,42.76
2022-08-28T22:32:26.885Z,42.98
2022-08-28T22:35:30.551Z,42.70
2022-08-28T22:38:33.686Z,43.03
2022-08-28T22:41:37.642Z,43.22
2022-08-28T22:44:41.342Z,43.00
2022-08-28T22:47:45.941Z,43.44
2022-08-28T22:50:49.871Z,43.53
2022-08-28T22:53:53.054Z,43.37
2022-08-28T22:56:56.225Z,43.15
2022-08-28T23:00:02.901Z,43.35
2022-08-28T23:03:07.905Z,43.03
2022-08-28T23:06:11.082Z,42.71
2022-08-28T23:09:14.194Z,42.88
2022-08-28T23:12:18.253Z,43.21
2022-08-28T23:15:22.983Z,43.33
2022-08-28T23:18:27.727Z,43.26
2022-08-28T23:21:30.871Z,43.36
2022-08-28T23:24:33.959Z,43.12
2022-08-28T23:27:37.124Z,43.02
2022-08-28T23:30:48.361Z,43.41
2022-08-28T23:33:54.299Z,43.54
2022-08-28T23:36:58.461Z,43.57
2022-08-28T23:40:01.800Z,43.96
2022-08-28T23:43:05.160Z,43.42
2022-08-28T23:46:08.325Z,43.38
2022-08-28T23:49:13.561Z,43.41
2022-08-28T23:52:19.849Z,42.78
2022-08-28T23:55:27.051Z,42.88
2022-08-28T23:58:32.289Z,42.85
